createdAt,value
2018-06-29T00:00:52.840Z,16.07
2018-06-29T00:01:53.046Z,16.07
2018-06-29T00:02:52.318Z,16.04
2018-06-29T00:03:52.825Z,16.06
2018-06-29T00:04:52.993Z,16.06
2018-06-29T00:05:52.819Z,16.06
2018-06-29T00:06:52.824Z,16.08
2018-06-29T00:07:52.550Z,16.04
2018-06-29T00:08:52.806Z,15.98
2018-06-29T00:09:52.542Z,16.02
2018-06-29T00:10:52.802Z,16.02
2018-06-29T00:11:52.533Z,16.04
2018-06-29T00:12:52.783Z,15.98
2018-06-29T00:13:52.268Z,16.04
2018-06-29T00:14:52.781Z,16.02
2018-06-29T00:15:52.778Z,15.93
2018-06-29T00:16:52.768Z,16.08
2018-06-29T00:17:52.507Z,16.04
2018-06-29T00:18:52.757Z,16.08
2018-06-29T00:19:52.755Z,16.07
2018-06-29T00:20:52.773Z,16.08
2018-06-29T00:21:52.491Z,16.06
2018-06-29T00:22:52.739Z,16.06
2018-06-29T00:23:52.479Z,16.06
2018-06-29T00:24:52.729Z,15.93
2018-06-29T00:25:52.804Z,16.06
2018-06-29T00:26:52.731Z,16.06
2018-06-29T00:27:52.722Z,16.08
2018-06-29T00:28:52.714Z,16.07
2018-06-29T00:29:52.869Z,16.08
2018-06-29T00:30:52.707Z,16.07
2018-06-29T00:31:52.189Z,16.06
2018-06-29T00:32:52.441Z,15.96
2018-06-29T00:33:52.688Z,15.91
2018-06-29T00:34:52.684Z,15.98
2018-06-29T00:35:52.679Z,16.02
2018-06-29T00:36:52.684Z,15.98
2018-06-29T00:37:52.853Z,15.92
2018-06-29T00:38:52.671Z,15.93
2018-06-29T00:39:52.662Z,15.89
2018-06-29T00:40:52.659Z,15.92
2018-06-29T00:41:52.658Z,15.83
2018-06-29T00:42:52.653Z,15.92
2018-06-29T00:43:52.647Z,15.83
2018-06-29T00:44:52.382Z,15.89
2018-06-29T00:45:52.716Z,15.86
2018-06-29T00:46:52.631Z,15.81
2018-06-29T00:47:52.370Z,15.71
2018-06-29T00:48:52.372Z,15.74
2018-06-29T00:49:52.620Z,15.73
2018-06-29T00:50:52.618Z,15.71
2018-06-29T00:51:52.353Z,15.65
2018-06-29T00:52:52.610Z,15.6
2018-06-29T00:53:52.344Z,15.53
2018-06-29T00:54:52.597Z,15.52
2018-06-29T00:55:52.596Z,15.44
2018-06-29T00:56:52.330Z,15.49
2018-06-29T00:57:52.065Z,15.35
2018-06-29T00:58:52.063Z,15.3
2018-06-29T00:59:52.314Z,15.22
2018-06-29T01:00:52.569Z,15.2
2018-06-29T01:01:52.564Z,15.15
2018-06-29T01:02:52.301Z,15.05
2018-06-29T01:03:52.551Z,15.01
2018-06-29T01:04:52.546Z,15.02
2018-06-29T01:05:52.284Z,14.95
2018-06-29T01:06:52.542Z,14.86
2018-06-29T01:07:52.533Z,14.82
2018-06-29T01:08:52.271Z,14.8
2018-06-29T01:09:52.523Z,14.7
2018-06-29T01:10:52.519Z,14.66
2018-06-29T01:11:52.516Z,14.67
2018-06-29T01:12:52.251Z,14.63
2018-06-29T01:13:52.511Z,14.51
2018-06-29T01:14:52.244Z,14.46
2018-06-29T01:15:52.491Z,14.52
2018-06-29T01:16:52.240Z,14.44
2018-06-29T01:17:52.225Z,14.41
2018-06-29T01:18:52.482Z,14.33
2018-06-29T01:19:52.220Z,14.33
2018-06-29T01:20:52.467Z,14.33
2018-06-29T01:21:52.213Z,14.3
2018-06-29T01:22:52.461Z,14.27
2018-06-29T01:23:52.452Z,14.24
2018-06-29T01:24:52.449Z,14.13
2018-06-29T01:25:52.186Z,14.19
2018-06-29T01:26:52.439Z,14.06
2018-06-29T01:27:52.431Z,14.05
2018-06-29T01:28:52.426Z,14.09
2018-06-29T01:29:52.437Z,14.09
2018-06-29T01:30:52.164Z,14.08
2018-06-29T01:31:52.409Z,14.05
2018-06-29T01:32:52.146Z,14.05
2018-06-29T01:33:52.398Z,14.06
2018-06-29T01:34:52.397Z,14.09
2018-06-29T01:35:52.131Z,14.06
2018-06-29T01:36:52.383Z,13.93
2018-06-29T01:37:52.380Z,13.99
2018-06-29T01:38:52.387Z,13.97
2018-06-29T01:39:52.383Z,13.99
2018-06-29T01:40:52.367Z,13.97
2018-06-29T01:41:51.843Z,13.93
2018-06-29T01:42:52.350Z,14.09
2018-06-29T01:43:52.349Z,14.01
2018-06-29T01:44:52.080Z,13.99
2018-06-29T01:45:52.338Z,13.99
2018-06-29T01:46:52.331Z,13.95
2018-06-29T01:47:52.323Z,13.97
2018-06-29T01:48:52.057Z,13.93
2018-06-29T01:49:52.305Z,13.94
2018-06-29T01:50:52.303Z,13.88
2018-06-29T01:51:52.056Z,13.79
2018-06-29T01:52:52.033Z,13.84
2018-06-29T01:53:52.028Z,13.87
2018-06-29T01:54:52.026Z,13.83
2018-06-29T01:55:52.019Z,13.83
2018-06-29T01:56:52.013Z,13.76
2018-06-29T01:57:52.262Z,13.86
2018-06-29T01:58:52.294Z,13.79
2018-06-29T01:59:52.252Z,13.76
2018-06-29T02:00:52.249Z,13.79
2018-06-29T02:01:51.986Z,13.81
2018-06-29T02:02:52.240Z,13.86
2018-06-29T02:03:52.230Z,13.9
2018-06-29T02:04:52.224Z,13.93
2018-06-29T02:05:52.218Z,13.97
2018-06-29T02:06:51.950Z,13.99
2018-06-29T02:07:52.208Z,14.02
2018-06-29T02:08:52.202Z,14.06
2018-06-29T02:09:52.195Z,14.08
2018-06-29T02:10:52.186Z,14.05
2018-06-29T02:11:51.923Z,14.09
2018-06-29T02:12:51.915Z,14.13
2018-06-29T02:13:52.170Z,14.11
2018-06-29T02:14:51.904Z,14.09
2018-06-29T02:15:51.897Z,14.13
2018-06-29T02:16:52.163Z,14.13
2018-06-29T02:17:52.139Z,14.31
2018-06-29T02:18:52.143Z,14.27
2018-06-29T02:19:51.880Z,14.26
2018-06-29T02:20:51.870Z,14.24
2018-06-29T02:21:52.125Z,14.28
2018-06-29T02:22:51.855Z,14.26
2018-06-29T02:23:52.104Z,14.26
2018-06-29T02:24:52.099Z,14.24
2018-06-29T02:25:52.109Z,14.27
2018-06-29T02:26:52.093Z,14.26
2018-06-29T02:27:51.832Z,14.19
2018-06-29T02:28:52.075Z,14.06
2018-06-29T02:29:51.811Z,14.09
2018-06-29T02:30:52.500Z,14.06
2018-06-29T02:31:52.059Z,14.13
2018-06-29T02:32:51.805Z,14.02
2018-06-29T02:33:51.790Z,14.06
2018-06-29T02:34:51.782Z,14.01
2018-06-29T02:35:52.044Z,13.97
2018-06-29T02:36:52.029Z,13.95
2018-06-29T02:37:52.041Z,13.91
2018-06-29T02:38:51.768Z,13.91
2018-06-29T02:39:52.013Z,13.78
2018-06-29T02:40:52.002Z,13.81
2018-06-29T02:41:51.998Z,13.7
2018-06-29T02:42:52.059Z,13.75
2018-06-29T02:43:51.988Z,13.63
2018-06-29T02:44:51.981Z,13.66
2018-06-29T02:45:51.718Z,13.54
2018-06-29T02:46:51.716Z,13.58
2018-06-29T02:47:51.969Z,13.7
2018-06-29T02:48:51.970Z,13.58
2018-06-29T02:49:51.435Z,13.57
2018-06-29T02:50:51.942Z,13.53
2018-06-29T02:51:51.936Z,13.54
2018-06-29T02:52:51.672Z,13.55
2018-06-29T02:53:51.669Z,13.51
2018-06-29T02:54:51.917Z,13.53
2018-06-29T02:55:51.915Z,13.5
2018-06-29T02:56:51.653Z,13.47
2018-06-29T02:57:51.895Z,13.45
2018-06-29T02:58:51.922Z,13.58
2018-06-29T02:59:51.630Z,13.42
2018-06-29T03:00:51.940Z,13.47
2018-06-29T03:01:51.887Z,13.44
2018-06-29T03:02:51.869Z,13.42
2018-06-29T03:03:51.881Z,13.42
2018-06-29T03:04:51.855Z,13.35
2018-06-29T03:05:51.845Z,13.27
2018-06-29T03:06:51.859Z,13.32
2018-06-29T03:07:51.851Z,13.29
2018-06-29T03:08:51.574Z,13.32
2018-06-29T03:09:51.823Z,13.28
2018-06-29T03:10:51.559Z,13.35
2018-06-29T03:11:51.555Z,13.32
2018-06-29T03:12:51.290Z,13.25
2018-06-29T03:13:51.545Z,13.27
2018-06-29T03:14:51.533Z,13.35
2018-06-29T03:15:51.818Z,13.32
2018-06-29T03:16:51.525Z,13.28
2018-06-29T03:17:51.775Z,13.31
2018-06-29T03:18:51.769Z,13.25
2018-06-29T03:19:51.766Z,13.32
2018-06-29T03:20:51.755Z,13.21
2018-06-29T03:21:51.488Z,13.24
2018-06-29T03:22:51.736Z,13.21
2018-06-29T03:23:51.471Z,13.25
2018-06-29T03:24:51.725Z,13.29
2018-06-29T03:25:51.719Z,13.17
2018-06-29T03:26:51.712Z,13.17
2018-06-29T03:27:51.704Z,13.21
2018-06-29T03:28:51.704Z,13.24
2018-06-29T03:29:51.695Z,13.21
2018-06-29T03:30:51.443Z,13.24
2018-06-29T03:31:51.430Z,13.21
2018-06-29T03:32:51.671Z,13.27
2018-06-29T03:33:51.673Z,13.36
2018-06-29T03:34:51.406Z,13.25
2018-06-29T03:35:51.653Z,13.31
2018-06-29T03:36:51.653Z,13.29
2018-06-29T03:37:51.384Z,13.28
2018-06-29T03:38:51.633Z,13.39
2018-06-29T03:39:51.373Z,13.27
2018-06-29T03:40:51.631Z,13.27
2018-06-29T03:41:51.367Z,13.29
2018-06-29T03:42:51.365Z,13.32
2018-06-29T03:43:51.605Z,13.35
2018-06-29T03:44:51.090Z,13.37
2018-06-29T03:45:51.344Z,13.35
2018-06-29T03:46:51.335Z,13.35
2018-06-29T03:47:51.590Z,13.39
2018-06-29T03:48:51.327Z,13.48
2018-06-29T03:49:51.316Z,13.48
2018-06-29T03:50:51.572Z,13.48
2018-06-29T03:51:51.561Z,13.42
2018-06-29T03:52:51.563Z,13.51
2018-06-29T03:53:51.293Z,13.4
2018-06-29T03:54:51.543Z,13.45
2018-06-29T03:55:51.280Z,13.5
2018-06-29T03:56:51.590Z,13.45
2018-06-29T03:57:51.524Z,13.54
2018-06-29T03:58:51.519Z,13.5
2018-06-29T03:59:51.255Z,13.5
2018-06-29T04:00:51.508Z,13.53
2018-06-29T04:01:51.501Z,13.54
2018-06-29T04:02:51.498Z,13.53
2018-06-29T04:03:51.498Z,13.5
2018-06-29T04:04:51.492Z,13.53
2018-06-29T04:05:51.486Z,13.63
2018-06-29T04:06:51.482Z,13.55
2018-06-29T04:07:51.472Z,13.69
2018-06-29T04:08:51.466Z,13.66
2018-06-29T04:09:51.461Z,13.6
2018-06-29T04:10:51.197Z,13.72
2018-06-29T04:11:51.624Z,13.68
2018-06-29T04:12:51.494Z,13.72
2018-06-29T04:13:51.181Z,13.75
2018-06-29T04:14:50.923Z,13.73
2018-06-29T04:15:51.434Z,13.79
2018-06-29T04:16:51.162Z,13.87
2018-06-29T04:17:51.414Z,13.87
2018-06-29T04:18:51.413Z,13.87
2018-06-29T04:19:51.411Z,13.88
2018-06-29T04:20:51.409Z,13.81
2018-06-29T04:21:51.400Z,13.94
2018-06-29T04:22:51.395Z,13.97
2018-06-29T04:23:51.384Z,13.95
2018-06-29T04:24:51.126Z,13.97
2018-06-29T04:25:51.376Z,14.08
2018-06-29T04:26:51.379Z,14.06
2018-06-29T04:27:51.365Z,14.09
2018-06-29T04:28:51.361Z,14.11
2018-06-29T04:29:50.843Z,14.21
2018-06-29T04:30:51.354Z,14.24
2018-06-29T04:31:51.349Z,14.28
2018-06-29T04:32:50.843Z,14.3
2018-06-29T04:33:51.083Z,14.27
2018-06-29T04:34:51.335Z,14.36
2018-06-29T04:35:51.071Z,14.28
2018-06-29T04:36:51.327Z,14.42
2018-06-29T04:37:51.321Z,14.46
2018-06-29T04:38:51.058Z,14.57
2018-06-29T04:39:51.308Z,14.46
2018-06-29T04:40:51.303Z,14.46
2018-06-29T04:41:51.302Z,14.48
2018-06-29T04:42:51.149Z,14.57
2018-06-29T04:43:50.775Z,14.64
2018-06-29T04:44:51.284Z,14.64
2018-06-29T04:45:51.277Z,14.71
2018-06-29T04:46:51.282Z,14.87
2018-06-29T04:47:51.272Z,14.82
2018-06-29T04:48:51.271Z,14.93
2018-06-29T04:49:50.999Z,14.97
2018-06-29T04:50:51.256Z,15.05
2018-06-29T04:51:51.253Z,15.04
2018-06-29T04:52:51.250Z,15.05
2018-06-29T04:53:50.978Z,15.13
2018-06-29T04:54:51.230Z,15.2
2018-06-29T04:55:51.223Z,15.2
2018-06-29T04:56:51.223Z,15.2
2018-06-29T04:57:51.215Z,15.31
2018-06-29T04:58:51.214Z,15.38
2018-06-29T04:59:50.945Z,15.35
2018-06-29T05:00:51.235Z,15.34
2018-06-29T05:01:51.191Z,15.4
2018-06-29T05:02:50.670Z,15.45
2018-06-29T05:03:51.182Z,15.6
2018-06-29T05:04:51.177Z,15.58
2018-06-29T05:05:50.919Z,15.56
2018-06-29T05:06:50.906Z,15.65
2018-06-29T05:07:50.906Z,15.77
2018-06-29T05:08:50.895Z,15.74
2018-06-29T05:09:50.636Z,15.88
2018-06-29T05:10:51.147Z,15.78
2018-06-29T05:11:51.136Z,15.99
2018-06-29T05:12:50.878Z,16.07
2018-06-29T05:13:51.126Z,16.18
2018-06-29T05:14:51.123Z,16.36
2018-06-29T05:15:51.121Z,16.44
2018-06-29T05:16:50.859Z,16.58
2018-06-29T05:17:51.107Z,16.82
2018-06-29T05:18:51.104Z,17.09
2018-06-29T05:19:50.587Z,17.13
2018-06-29T05:20:50.840Z,17.25
2018-06-29T05:21:51.095Z,17.43
2018-06-29T05:22:50.831Z,17.49
2018-06-29T05:23:51.091Z,17.52
2018-06-29T05:24:51.078Z,17.58
2018-06-29T05:25:51.079Z,17.66
2018-06-29T05:26:51.076Z,17.68
2018-06-29T05:27:51.070Z,17.69
2018-06-29T05:28:50.805Z,17.73
2018-06-29T05:29:50.800Z,17.66
2018-06-29T05:30:51.054Z,17.54
2018-06-29T05:31:51.051Z,17.5
2018-06-29T05:32:51.046Z,17.57
2018-06-29T05:33:51.051Z,17.49
2018-06-29T05:34:50.784Z,17.43
2018-06-29T05:35:51.160Z,17.4
2018-06-29T05:36:51.032Z,17.43
2018-06-29T05:37:50.774Z,17.36
2018-06-29T05:38:51.030Z,17.42
2018-06-29T05:39:50.772Z,17.31
2018-06-29T05:40:51.015Z,17.35
2018-06-29T05:41:51.326Z,17.3
2018-06-29T05:42:51.221Z,17.38
2018-06-29T05:43:50.752Z,17.43
2018-06-29T05:44:50.752Z,17.28
2018-06-29T05:45:50.746Z,17.31
2018-06-29T05:46:51.052Z,17.39
2018-06-29T05:47:50.484Z,17.35
2018-06-29T05:48:50.998Z,17.39
2018-06-29T05:49:50.993Z,17.35
2018-06-29T05:50:50.986Z,17.28
2018-06-29T05:51:50.990Z,17.31
2018-06-29T05:52:50.981Z,17.36
2018-06-29T05:53:50.978Z,17.25
2018-06-29T05:54:50.719Z,17.25
2018-06-29T05:55:50.976Z,17.17
2018-06-29T05:56:50.967Z,17.17
2018-06-29T05:57:50.707Z,17.18
2018-06-29T05:58:50.958Z,17.18
2018-06-29T05:59:50.956Z,17.21
2018-06-29T06:00:50.696Z,17.18
2018-06-29T06:01:50.950Z,17.21
2018-06-29T06:02:50.429Z,17.28
2018-06-29T06:03:50.943Z,17.3
2018-06-29T06:04:51.247Z,17.28
2018-06-29T06:05:50.677Z,17.2
2018-06-29T06:06:50.675Z,17.35
2018-06-29T06:07:50.413Z,17.35
2018-06-29T06:08:50.412Z,17.35
2018-06-29T06:09:50.920Z,17.39
2018-06-29T06:10:50.925Z,17.43
2018-06-29T06:11:50.919Z,17.47
2018-06-29T06:12:50.649Z,17.52
2018-06-29T06:13:50.907Z,17.49
2018-06-29T06:14:50.648Z,17.54
2018-06-29T06:15:50.906Z,17.57
2018-06-29T06:16:50.382Z,17.49
2018-06-29T06:17:50.894Z,17.55
2018-06-29T06:18:50.894Z,17.62
2018-06-29T06:19:50.631Z,17.65
2018-06-29T06:20:50.887Z,17.71
2018-06-29T06:21:50.926Z,17.77
2018-06-29T06:22:50.620Z,17.79
2018-06-29T06:23:50.874Z,17.81
2018-06-29T06:24:50.873Z,17.83
2018-06-29T06:25:50.612Z,17.86
2018-06-29T06:26:50.872Z,17.88
2018-06-29T06:27:50.859Z,17.84
2018-06-29T06:28:50.860Z,17.95
2018-06-29T06:29:50.858Z,17.98
2018-06-29T06:30:50.855Z,17.88
2018-06-29T06:31:50.852Z,18.06
2018-06-29T06:32:50.590Z,18.08
2018-06-29T06:33:50.834Z,18.02
2018-06-29T06:34:50.841Z,18.06
2018-06-29T06:35:50.836Z,18.1
2018-06-29T06:36:50.838Z,18.19
2018-06-29T06:37:50.569Z,18.11
2018-06-29T06:38:50.569Z,18.19
2018-06-29T06:39:50.567Z,18.14
2018-06-29T06:40:50.561Z,18.21
2018-06-29T06:41:50.560Z,18.26
2018-06-29T06:42:50.818Z,18.57
2018-06-29T06:43:50.810Z,19.05
2018-06-29T06:44:50.809Z,20.01
2018-06-29T06:45:50.812Z,20.93
2018-06-29T06:46:50.813Z,21.82
2018-06-29T06:47:50.826Z,22.61
2018-06-29T06:48:50.801Z,23.53
2018-06-29T06:49:50.545Z,24.12
2018-06-29T06:50:50.542Z,24.56
2018-06-29T06:51:50.540Z,25.19
2018-06-29T06:52:50.801Z,25.7
2018-06-29T06:53:50.539Z,26.07
2018-06-29T06:54:50.808Z,26.49
2018-06-29T06:55:50.542Z,26.78
2018-06-29T06:56:50.536Z,26.97
2018-06-29T06:57:50.541Z,27.24
2018-06-29T06:58:50.542Z,27.31
2018-06-29T06:59:50.797Z,27.48
2018-06-29T07:00:50.802Z,27.74
2018-06-29T07:01:50.545Z,28.01
2018-06-29T07:02:50.552Z,28.16
2018-06-29T07:03:50.808Z,28.49
2018-06-29T07:04:50.817Z,28.65
2018-06-29T07:05:50.807Z,28.83
2018-06-29T07:06:50.816Z,29.01
2018-06-29T07:07:50.816Z,28.95
2018-06-29T07:08:50.818Z,28.94
2018-06-29T07:09:50.563Z,28.95
2018-06-29T07:10:50.824Z,29.02
2018-06-29T07:11:50.827Z,28.95
2018-06-29T07:12:50.839Z,28.98
2018-06-29T07:13:50.837Z,28.98
2018-06-29T07:14:50.842Z,28.95
2018-06-29T07:15:50.842Z,28.86
2018-06-29T07:16:50.856Z,29.03
2018-06-29T07:17:50.594Z,29.13
2018-06-29T07:18:50.854Z,29.23
2018-06-29T07:19:50.603Z,29.4
2018-06-29T07:20:50.878Z,29.43
2018-06-29T07:21:50.612Z,29.35
2018-06-29T07:22:50.622Z,29.39
2018-06-29T07:23:50.903Z,29.35
2018-06-29T07:24:50.885Z,29.3
2018-06-29T07:25:50.898Z,29.47
2018-06-29T07:26:50.892Z,29.63
2018-06-29T07:27:50.899Z,29.82
2018-06-29T07:28:50.648Z,30.19
2018-06-29T07:29:50.653Z,30.21
2018-06-29T07:30:50.663Z,30.06
2018-06-29T07:31:50.925Z,29.88
2018-06-29T07:32:50.928Z,30.18
2018-06-29T07:33:50.930Z,30.49
2018-06-29T07:34:50.943Z,30.63
2018-06-29T07:35:50.944Z,30.75
2018-06-29T07:36:50.690Z,30.81
2018-06-29T07:37:50.761Z,30.69
2018-06-29T07:38:50.703Z,30.62
2018-06-29T07:39:50.967Z,30.75
2018-06-29T07:40:50.973Z,30.81
2018-06-29T07:41:50.987Z,30.82
2018-06-29T07:42:50.987Z,30.82
2018-06-29T07:43:50.992Z,30.86
2018-06-29T07:44:50.998Z,30.71
2018-06-29T07:45:50.998Z,30.69
2018-06-29T07:46:51.107Z,30.82
2018-06-29T07:47:51.008Z,31.12
2018-06-29T07:48:51.022Z,31.28
2018-06-29T07:49:50.772Z,31.59
2018-06-29T07:50:50.828Z,31.41
2018-06-29T07:51:50.523Z,31.33
2018-06-29T07:52:51.185Z,31.1
2018-06-29T07:53:50.787Z,31.07
2018-06-29T07:54:50.798Z,30.97
2018-06-29T07:55:50.805Z,30.97
2018-06-29T07:56:50.824Z,31.04
2018-06-29T07:57:50.826Z,31.04
2018-06-29T07:58:51.546Z,30.93
2018-06-29T07:59:51.087Z,30.96
2018-06-29T08:00:50.834Z,30.82
2018-06-29T08:01:51.112Z,30.64
2018-06-29T08:02:50.988Z,30.71
2018-06-29T08:03:51.287Z,30.86
2018-06-29T08:04:50.606Z,30.73
2018-06-29T08:05:51.123Z,30.62
2018-06-29T08:06:51.137Z,30.25
2018-06-29T08:07:50.626Z,30.03
2018-06-29T08:08:50.885Z,29.97
2018-06-29T08:09:51.152Z,29.82
2018-06-29T08:10:51.154Z,29.61
2018-06-29T08:11:50.908Z,29.57
2018-06-29T08:12:50.914Z,29.5
2018-06-29T08:13:50.925Z,29.29
2018-06-29T08:14:51.179Z,29.08
2018-06-29T08:15:50.668Z,29.2
2018-06-29T08:16:51.368Z,29.24
2018-06-29T08:17:51.194Z,29.01
2018-06-29T08:18:51.205Z,28.73
2018-06-29T08:19:51.201Z,28.46
2018-06-29T08:20:51.204Z,28.16
2018-06-29T08:21:51.213Z,27.69
2018-06-29T08:22:51.222Z,27.36
2018-06-29T08:23:51.216Z,27
2018-06-29T08:24:51.224Z,26.69
2018-06-29T08:25:50.967Z,26.07
2018-06-29T08:26:50.715Z,25.69
2018-06-29T08:27:50.979Z,25.32
2018-06-29T08:28:50.978Z,24.96
2018-06-29T08:29:50.983Z,24.67
2018-06-29T08:30:50.980Z,24.46
2018-06-29T08:31:51.240Z,24.36
2018-06-29T08:32:51.243Z,24.27
2018-06-29T08:33:51.251Z,23.99
2018-06-29T08:34:50.994Z,23.89
2018-06-29T08:35:51.245Z,23.7
2018-06-29T08:36:51.260Z,23.53
2018-06-29T08:37:51.255Z,23.44
2018-06-29T08:38:51.316Z,23.35
2018-06-29T08:39:51.004Z,23.24
2018-06-29T08:40:51.265Z,23.24
2018-06-29T08:41:51.260Z,23.28
2018-06-29T08:42:51.264Z,23.25
2018-06-29T08:43:51.265Z,23.34
2018-06-29T08:44:51.268Z,23.28
2018-06-29T08:45:51.010Z,23.32
2018-06-29T08:46:51.609Z,23.21
2018-06-29T08:47:51.274Z,23.06
2018-06-29T08:48:51.017Z,23.03
2018-06-29T08:49:51.280Z,22.92
2018-06-29T08:50:51.280Z,22.86
2018-06-29T08:51:51.021Z,22.86
2018-06-29T08:52:51.281Z,22.91
2018-06-29T08:53:51.280Z,23
2018-06-29T08:54:51.284Z,23.14
2018-06-29T08:55:50.767Z,23.25
2018-06-29T08:56:50.766Z,23.34
2018-06-29T08:57:51.286Z,23.32
2018-06-29T08:58:51.112Z,23.24
2018-06-29T08:59:51.028Z,23.21
2018-06-29T09:00:51.291Z,23.22
2018-06-29T09:01:51.296Z,23.26
2018-06-29T09:02:51.293Z,23.37
2018-06-29T09:03:51.290Z,23.45
2018-06-29T09:04:51.292Z,23.53
2018-06-29T09:05:51.296Z,23.48
2018-06-29T09:06:51.293Z,23.5
2018-06-29T09:07:51.037Z,23.34
2018-06-29T09:08:51.039Z,23.28
2018-06-29T09:09:51.293Z,23.32
2018-06-29T09:10:51.316Z,23.25
2018-06-29T09:11:51.298Z,23.26
2018-06-29T09:12:51.294Z,23.26
2018-06-29T09:13:50.786Z,23.25
2018-06-29T09:14:51.296Z,23.16
2018-06-29T09:15:51.046Z,23.21
2018-06-29T09:16:51.043Z,23.14
2018-06-29T09:17:51.051Z,23.12
2018-06-29T09:18:51.060Z,23.1
2018-06-29T09:19:51.302Z,22.99
2018-06-29T09:20:51.304Z,23.01
2018-06-29T09:21:51.305Z,23.12
2018-06-29T09:22:51.308Z,23.24
2018-06-29T09:23:51.308Z,23.26
2018-06-29T09:24:51.309Z,23.21
2018-06-29T09:25:51.055Z,23.32
2018-06-29T09:26:51.049Z,23.26
2018-06-29T09:27:51.317Z,23.26
2018-06-29T09:28:51.050Z,23.25
2018-06-29T09:29:50.863Z,23.28
2018-06-29T09:30:51.314Z,23.38
2018-06-29T09:31:51.315Z,23.28
2018-06-29T09:32:51.058Z,23.28
2018-06-29T09:33:51.314Z,23.26
2018-06-29T09:34:51.326Z,23.26
2018-06-29T09:35:51.059Z,23.24
2018-06-29T09:36:51.318Z,23.28
2018-06-29T09:37:51.323Z,23.5
2018-06-29T09:38:51.318Z,23.53
2018-06-29T09:39:51.320Z,23.48
2018-06-29T09:40:51.317Z,23.48
2018-06-29T09:41:51.064Z,23.47
2018-06-29T09:42:51.070Z,23.47
2018-06-29T09:43:51.318Z,23.47
2018-06-29T09:44:51.066Z,23.5
2018-06-29T09:45:51.325Z,23.53
2018-06-29T09:46:51.330Z,23.6
2018-06-29T09:47:51.513Z,23.59
2018-06-29T09:48:51.328Z,23.64
2018-06-29T09:49:51.067Z,23.74
2018-06-29T09:50:51.328Z,23.9
2018-06-29T09:51:51.329Z,23.93
2018-06-29T09:52:51.328Z,24
2018-06-29T09:53:51.079Z,24.04
2018-06-29T09:54:51.354Z,24
2018-06-29T09:55:51.333Z,24
2018-06-29T09:56:51.073Z,24.12
2018-06-29T09:57:51.077Z,24.14
2018-06-29T09:58:51.336Z,24.12
2018-06-29T09:59:51.343Z,24.17
2018-06-29T10:00:58.124Z,24.02
2018-06-29T10:01:51.078Z,24.07
2018-06-29T10:02:51.334Z,24.03
2018-06-29T10:03:50.823Z,23.85
2018-06-29T10:04:51.344Z,23.81
2018-06-29T10:05:51.342Z,23.79
2018-06-29T10:06:51.338Z,23.78
2018-06-29T10:07:51.342Z,23.72
2018-06-29T10:08:51.086Z,23.77
2018-06-29T10:09:51.090Z,23.89
2018-06-29T10:10:51.085Z,23.92
2018-06-29T10:11:51.348Z,24
2018-06-29T10:12:51.368Z,24.07
2018-06-29T10:13:51.089Z,24.12
2018-06-29T10:14:51.356Z,24.15
2018-06-29T10:15:51.350Z,24.21
2018-06-29T10:16:51.092Z,24.29
2018-06-29T10:17:51.356Z,24.33
2018-06-29T10:18:51.372Z,24.37
2018-06-29T10:19:51.366Z,24.45
2018-06-29T10:20:51.356Z,24.37
2018-06-29T10:21:51.097Z,24.39
2018-06-29T10:22:51.360Z,24.3
2018-06-29T10:23:50.842Z,24.27
2018-06-29T10:24:51.362Z,24.21
2018-06-29T10:25:51.104Z,24.21
2018-06-29T10:26:51.365Z,24.26
2018-06-29T10:27:51.371Z,24.26
2018-06-29T10:28:51.365Z,24.24
2018-06-29T10:29:51.365Z,24.18
2018-06-29T10:30:51.299Z,24.19
2018-06-29T10:31:51.368Z,24.21
2018-06-29T10:32:51.374Z,24.32
2018-06-29T10:33:51.373Z,24.39
2018-06-29T10:34:51.374Z,24.29
2018-06-29T10:35:51.375Z,24.26
2018-06-29T10:36:50.881Z,24.15
2018-06-29T10:37:51.383Z,24.19
2018-06-29T10:38:51.491Z,24.14
2018-06-29T10:39:51.377Z,24.21
2018-06-29T10:40:51.122Z,24.26
2018-06-29T10:41:51.387Z,24.22
2018-06-29T10:42:51.377Z,24.22
2018-06-29T10:43:51.386Z,24.24
2018-06-29T10:44:51.743Z,24.34
2018-06-29T10:45:51.131Z,24.45
2018-06-29T10:46:51.390Z,24.4
2018-06-29T10:47:51.392Z,24.51
2018-06-29T10:48:51.130Z,24.66
2018-06-29T10:49:51.134Z,24.69
2018-06-29T10:50:51.145Z,24.67
2018-06-29T10:51:51.392Z,24.83
2018-06-29T10:52:51.196Z,24.85
2018-06-29T10:53:51.401Z,24.8
2018-06-29T10:54:51.400Z,24.75
2018-06-29T10:55:51.143Z,24.75
2018-06-29T10:56:51.402Z,24.66
2018-06-29T10:57:51.404Z,24.64
2018-06-29T10:58:50.891Z,24.48
2018-06-29T10:59:51.151Z,24.45
2018-06-29T11:00:51.407Z,24.46
2018-06-29T11:01:51.410Z,24.46
2018-06-29T11:02:51.156Z,24.46
2018-06-29T11:03:51.417Z,24.37
2018-06-29T11:04:51.414Z,24.45
2018-06-29T11:05:51.418Z,24.4
2018-06-29T11:06:51.429Z,24.42
2018-06-29T11:07:51.419Z,24.49
2018-06-29T11:08:51.165Z,24.46
2018-06-29T11:09:51.167Z,24.45
2018-06-29T11:10:51.171Z,24.4
2018-06-29T11:11:51.168Z,24.46
2018-06-29T11:12:51.431Z,24.49
2018-06-29T11:13:51.436Z,24.52
2018-06-29T11:14:51.176Z,24.54
2018-06-29T11:15:51.433Z,24.4
2018-06-29T11:16:51.436Z,24.54
2018-06-29T11:17:51.433Z,24.59
2018-06-29T11:18:51.175Z,24.74
2018-06-29T11:19:51.436Z,24.82
2018-06-29T11:20:51.440Z,24.87
2018-06-29T11:21:51.180Z,24.82
2018-06-29T11:22:51.441Z,24.69
2018-06-29T11:23:51.450Z,24.71
2018-06-29T11:24:51.489Z,24.52
2018-06-29T11:25:50.931Z,24.46
2018-06-29T11:26:51.450Z,24.52
2018-06-29T11:27:51.455Z,24.48
2018-06-29T11:28:51.456Z,24.52
2018-06-29T11:29:51.455Z,24.69
2018-06-29T11:30:51.458Z,24.67
2018-06-29T11:31:51.205Z,24.69
2018-06-29T11:32:51.455Z,24.66
2018-06-29T11:33:51.457Z,24.87
2018-06-29T11:34:51.204Z,24.94
2018-06-29T11:35:51.459Z,25.02
2018-06-29T11:36:51.604Z,25.04
2018-06-29T11:37:51.467Z,25.11
2018-06-29T11:38:51.474Z,24.94
2018-06-29T11:39:51.211Z,24.86
2018-06-29T11:40:51.467Z,24.96
2018-06-29T11:41:51.478Z,24.87
2018-06-29T11:42:51.219Z,24.92
2018-06-29T11:43:51.475Z,24.96
2018-06-29T11:44:51.227Z,24.97
2018-06-29T11:45:51.488Z,24.92
2018-06-29T11:46:51.513Z,25.02
2018-06-29T11:47:51.484Z,25.01
2018-06-29T11:48:51.566Z,25.01
2018-06-29T11:49:51.493Z,25.05
2018-06-29T11:50:51.236Z,25.04
2018-06-29T11:51:51.250Z,24.96
2018-06-29T11:52:51.235Z,24.87
2018-06-29T11:53:50.982Z,24.67
2018-06-29T11:54:51.240Z,24.52
2018-06-29T11:55:51.246Z,24.48
2018-06-29T11:56:51.251Z,24.59
2018-06-29T11:57:51.255Z,24.69
2018-06-29T11:58:51.251Z,24.8
2018-06-29T11:59:51.502Z,25
2018-06-29T12:00:50.995Z,25.02
2018-06-29T12:01:51.512Z,25.05
2018-06-29T12:02:51.513Z,25.07
2018-06-29T12:03:51.262Z,25.05
2018-06-29T12:04:51.514Z,24.97
2018-06-29T12:05:51.004Z,25.02
2018-06-29T12:06:51.265Z,25.11
2018-06-29T12:07:51.865Z,25.04
2018-06-29T12:08:51.276Z,25.02
2018-06-29T12:09:51.523Z,24.87
2018-06-29T12:10:51.535Z,24.89
2018-06-29T12:11:51.276Z,24.94
2018-06-29T12:12:51.277Z,24.93
2018-06-29T12:13:51.537Z,24.94
2018-06-29T12:14:51.627Z,24.97
2018-06-29T12:15:51.533Z,25.04
2018-06-29T12:16:51.540Z,25.12
2018-06-29T12:17:51.282Z,25.2
2018-06-29T12:18:51.028Z,25.22
2018-06-29T12:19:51.549Z,25.23
2018-06-29T12:20:51.519Z,25.32
2018-06-29T12:21:51.556Z,25.34
2018-06-29T12:22:51.038Z,25.39
2018-06-29T12:23:51.562Z,25.45
2018-06-29T12:24:51.552Z,25.49
2018-06-29T12:25:51.557Z,25.45
2018-06-29T12:26:51.564Z,25.54
2018-06-29T12:27:51.721Z,25.56
2018-06-29T12:28:51.558Z,25.57
2018-06-29T12:29:51.603Z,25.44
2018-06-29T12:30:51.312Z,25.47
2018-06-29T12:31:51.573Z,25.59
2018-06-29T12:32:51.569Z,25.47
2018-06-29T12:33:51.572Z,25.56
2018-06-29T12:34:51.577Z,25.51
2018-06-29T12:35:51.578Z,25.51
2018-06-29T12:36:51.584Z,25.47
2018-06-29T12:37:51.357Z,25.49
2018-06-29T12:38:51.593Z,25.48
2018-06-29T12:39:51.593Z,25.41
2018-06-29T12:40:51.336Z,25.41
2018-06-29T12:41:51.605Z,25.32
2018-06-29T12:42:51.598Z,25.37
2018-06-29T12:43:51.605Z,25.33
2018-06-29T12:44:51.602Z,25.39
2018-06-29T12:45:51.606Z,25.49
2018-06-29T12:46:51.613Z,25.59
2018-06-29T12:47:51.398Z,25.47
2018-06-29T12:48:51.359Z,25.54
2018-06-29T12:49:51.611Z,25.54
2018-06-29T12:50:51.614Z,25.49
2018-06-29T12:51:51.366Z,25.56
2018-06-29T12:52:51.622Z,25.42
2018-06-29T12:53:51.362Z,25.45
2018-06-29T12:54:51.620Z,25.51